Norris Rancho Marino Reserve, California Weather observations

Data are for 10 minute period ending at time listed.
 Day   Time   Solar   Ave.   Ave.  Ave.  Vector  Max.   Baro.   Total    
  of    of     Rad.   Air    Rel.  Wind   Wind   Wind  Press.  Precip.   
Year   Day            Temp.  Hum.  Speed  Dir.   Gust                    
2017   (PST)  Kw/m2    F      %     mph   deg.    mph    mb.     in.     
-------------------------------------------------------------------------
  56    6:40   0.02   41.2    82    4.1    38     4.7   1017.6    0.00 
  56    6:50   0.03   41.2    81    3.7    50     4.7   1017.6    0.00 
  56    7:00   0.03   40.8    83    3.9    36     5.1   1017.5    0.00 
  56    7:10   0.05   40.8    83    4.0    40     5.0   1017.5    0.00 
  56    7:20   0.06   42.6    78    6.1    45     7.6   1017.3    0.00 
  56    7:30   0.09   43.7    74    5.2    39     7.2   1017.3    0.00 
  56    7:40   0.16   43.9    79    5.3    44     6.5   1017.4    0.00 
  56    7:50   0.10   45.3    74    5.1    44     6.5   1017.7    0.00 
  56    8:00   0.10   46.7    68    5.3    50     6.5   1017.9    0.00 
  56    8:10   0.11   47.1    67    4.4    45     5.5   1018.0    0.00 
  56    8:20   0.14   48.0    68    3.3    49     4.2   1018.1    0.00 
  56    8:30   0.19   48.5    72    1.8    90     3.1   1018.2    0.00 
  56    8:40   0.20   49.7    64    0.9   158     2.0   1018.2    0.00 
  56    8:50   0.22   50.1    60    0.7   126     1.4   1018.2    0.00 
  56    9:00   0.20   50.9    59    0.2   120     1.9   1018.1    0.00 
  56    9:10   0.18   50.5    56    1.3    86     3.1   1018.0    0.00 
  56    9:20   0.17   50.2    57    2.5    80     5.2   1017.8    0.00 
  56    9:30   0.15   50.1    60    2.5   142     5.7   1017.8    0.00 
  56    9:40   0.16   50.4    59    1.5   199     3.3   1017.7    0.00 
  56    9:50   0.22   50.5    60    2.2   194     3.9   1017.8    0.00 
  56   10:00   0.23   50.7    61    2.2   188     3.5   1017.7    0.00 
  56   10:10   0.30   51.0    61    2.7   215     3.9   1017.8    0.00 
  56   10:20   0.30   51.1    62    3.5   214     5.3   1018.0    0.00 
  56   10:30   0.32   51.1    59    3.1   208     4.6   1018.2    0.00 
  56   10:40   0.34   51.6    60    3.3   200     4.2   1018.4    0.00 
  56   10:50   0.30   51.5    60    3.3   202     5.4   1018.4    0.00 
  56   11:00   0.30   51.6    60    2.8   219     4.1   1018.5    0.00 
  56   11:10   0.29   51.5    57    2.8   237     4.1   1018.3    0.00 
  56   11:20   0.25   51.3    56    3.5   246     5.2   1018.3    0.00 
  56   11:30   0.31   51.3    60    3.7   261     4.8   1018.1    0.00 
  56   11:40   0.36   51.7    59    3.4   243     5.7   1018.1    0.00 
  56   11:50   0.34   51.6    58    3.6   260     5.6   1018.0    0.00 
  56   12:00   0.31   51.7    56    2.6   268     3.9   1017.5    0.00 
  56   12:10   0.30   51.7    54    2.3   258     4.0   1017.4    0.00 
  56   12:20   0.25   51.7    55    3.0   257     4.9   1017.3    0.00 
  56   12:30   0.29   51.6    57    4.3   283     6.4   1017.2    0.00 
  56   12:40   0.45   51.9    58    5.2   285     7.2   1016.9    0.00 
  56   12:50   0.41   52.2    57    4.9   280     6.9   1016.7    0.00 
  56   13:00   0.36   52.1    62    5.0   284     7.2   1016.6    0.00 
  56   13:10   0.33   51.9    61    5.2   286     7.2   1016.3    0.00 
  56   13:20   0.29   51.9    61    5.1   276     7.2   1016.3    0.00 
  56   13:30   0.29   51.9    66    6.1   285    10.0   1016.1    0.00 
  56   13:40   0.31   51.8    68    7.7   281    10.3   1016.0    0.00 
  56   13:50   0.34   51.8    67    5.5   280     8.0   1015.7    0.00 
  56   14:00   0.38   52.1    66    4.6   257     6.7   1015.5    0.00 
  56   14:10   0.37   52.5    64    2.9   224     5.8   1015.3    0.00 
  56   14:20   0.33   52.3    64    2.8   246     5.7   1015.0    0.00 
  56   14:30   0.31   52.1    65    4.2   259     5.5   1014.9    0.00 
  56   14:40   0.34   52.0    64    3.6   257     5.3   1014.6    0.00 
  56   14:50   0.38   52.2    63    3.2   237     5.2   1014.3    0.00 
  56   15:00   0.42   52.6    62    3.5   240     5.3   1014.4    0.00 
  56   15:10   0.33   52.4    64    4.1   240     6.2   1014.3    0.00 
  56   15:20   0.52   53.2    62    4.7   230     6.9   1014.6    0.00 
  56   15:30   0.49   53.4    61    4.4   234     5.8   1014.5    0.00 
  56   15:40   0.44   53.2    62    6.4   252     8.9   1014.5    0.00 
  56   15:50   0.41   53.1    64    7.3   258    10.2   1014.5    0.00 
  56   16:00   0.37   52.9    64    7.7   260    10.4   1014.4    0.00 
  56   16:10   0.34   52.9    63    8.2   255    10.7   1014.3    0.00 
  56   16:20   0.31   52.9    64    9.1   262    12.4   1014.3    0.00 
  56   16:30   0.28   52.6    65   11.1   271    13.5   1014.5    0.00 
  56   16:40   0.24   52.3    67   10.7   276    13.8   1014.5    0.00 
  56   16:50   0.22   52.2    68   11.1   274    13.8   1014.5    0.00 
  56   17:00   0.08   51.1    71   11.1   278    14.8   1014.6    0.00 
  56   17:10   0.09   51.0    72   11.8   280    15.9   1014.8    0.00 
  56   17:20   0.08   50.7    72   12.6   287    15.3   1014.8    0.00 
  56   17:30   0.07   50.7    72   12.1   293    16.7   1014.7    0.00 
  56   17:40   0.03   50.5    72   11.7   287    15.3   1014.7    0.00 
  56   17:50   0.02   50.3    70   12.7   292    15.8   1014.6    0.00 
  56   18:00   0.01   50.1    70   11.8   293    16.9   1014.5    0.00 
  56   18:10   0.00   50.2    71   12.0   291    14.5   1014.5    0.00 
  56   18:20   0.00   50.1    71   10.9   295    14.6   1014.4    0.00 
  56   18:30   0.00   50.0    72   10.5   292    14.2   1014.2    0.00 
  56   18:40   0.00   50.1    71   11.4   290    16.2   1014.2    0.00 
  56   18:50   0.00   49.8    72    9.6   291    14.3   1014.2    0.00 
  56   19:00   0.00   49.8    71    8.8   296    13.0   1014.2    0.00 
  56   19:10   0.00   49.6    70    8.5   291    11.5   1014.2    0.00 
  56   19:20   0.00   49.5    70    6.5   297    10.4   1014.0    0.00 
  56   19:30   0.00   49.3    70    4.3   336     9.8   1013.8    0.00 
  56   19:40   0.00   49.0    71    3.9     4     5.9   1013.8    0.00 
  56   19:50   0.00   48.7    72    4.1     8     6.8   1013.8    0.00 
  56   20:00   0.00   48.4    72    4.5    14     6.2   1013.8    0.00 
  56   20:10   0.00   48.4    72    3.8     8     6.0   1014.0    0.00 
  56   20:20   0.00   48.4    72    4.3   356     7.5   1014.2    0.00 
  56   20:30   0.00   48.8    70    4.5   356     6.9   1014.2    0.00 
  56   20:40   0.00   48.6    70    4.2    13     6.6   1013.9    0.00 
  56   20:50   0.00   48.2    72    4.1    28     6.3   1013.8    0.00 
  56   21:00   0.00   48.1    72    4.4    30     5.2   1013.7    0.00 
  56   21:10   0.00   48.3    71    4.6    28     5.6   1013.5    0.00 
  56   21:20   0.00   48.4    70    3.8    20     5.3   1013.6    0.00 
  56   21:30   0.00   48.3    72    4.2    20     5.2   1013.7    0.00 
  56   21:40   0.00   48.3    72    4.5     9     6.5   1013.8    0.00 
  56   21:50   0.00   48.3    71    4.5     9     6.5   1013.8    0.00 
  56   22:00   0.00   48.4    70    3.7    26     5.7   1013.7    0.00 
  56   22:10   0.00   48.2    71    3.3    34     4.7   1013.7    0.00 
  56   22:20   0.00   48.2    71    3.4    40     4.2   1013.7    0.00 
  56   22:30   0.01   47.7    77    4.2    52     6.4   1013.7    0.00 
  56   22:40   0.01   48.1    74    3.9    32     6.7   1013.4    0.00 
  56   22:50   0.01   48.1    75    3.8    39     5.9   1013.3    0.00 
  56   23:00   0.01   47.8    76    4.1    56     5.6   1013.2    0.00 
  56   23:10   0.01   47.2    81    4.3    53     7.2   1013.0    0.00 
  56   23:20   0.01   47.0    81    5.0    65     7.2   1013.0    0.00 
  56   23:30   0.01   46.9    78    4.6    69     8.3   1012.7    0.00 
  56   23:40   0.01   46.0    85    5.4    84     9.2   1012.5    0.01 
  56   23:50   0.01   45.6    86    4.7    64     8.2   1012.4    0.01 
  57    0:00   0.01   45.2    89    4.5    72     8.2   1012.2    0.01 
  57    0:10   0.01   45.3    89    4.4    88     8.0   1012.1    0.00 
  57    0:20   0.01   45.8    82    8.4    95    15.0   1011.2    0.01 
  57    0:30   0.00   46.8    72   10.1    96    14.4   1010.9    0.01 
  57    0:40   0.00   46.9    70    8.1    88    14.1   1011.0    0.00 
  57    0:50   0.00   47.0    70    8.1    94    14.1   1011.0    0.00 
  57    1:00   0.00   47.2    69    8.6    96    15.3   1011.0    0.00 
  57    1:10   0.00   47.3    69    7.2    92    10.5   1011.1    0.00 
  57    1:20   0.00   47.2    70    5.5    85     9.2   1011.2    0.00 
  57    1:30   0.00   46.6    74    2.2    69     4.7   1011.4    0.00 
  57    1:40   0.00   45.9    80    1.2    50     3.1   1011.5    0.00 
  57    1:50   0.00   45.3    85    2.5   340     4.0   1011.8    0.00 
  57    2:00   0.00   45.0    88    2.9    28     4.0   1011.8    0.00 
  57    2:10   0.00   44.5    90    3.3    19     4.7   1011.8    0.00 
  57    2:20   0.00   44.7    88    4.3   354     7.0   1011.8    0.01 
  57    2:30   0.00   45.0    83    4.9   354     8.0   1011.8    0.00 
  57    2:40   0.01   44.9    81    5.0     8     9.3   1011.8    0.00 
  57    2:50   0.00   44.5    83    4.0    16     6.7   1011.6    0.00 
  57    3:00   0.01   44.2    83    4.0    11     6.6   1011.5    0.00 
  57    3:10   0.01   43.7    86    2.6    35     3.7   1011.4    0.00 
  57    3:20   0.01   43.2    88    3.6    37     5.3   1011.4    0.00 
  57    3:30   0.00   43.3    89    4.3    44     5.9   1011.3    0.00 
  57    3:40   0.00   43.2    88    3.5    64     5.3   1010.9    0.00 
  57    3:50   0.01   42.8    90    3.9    79     7.8   1010.6    0.00 
  57    4:00   0.01   42.6    88    5.1    87     8.3   1010.4    0.00 
  57    4:10   0.01   42.8    85    4.9    79    11.1   1010.4    0.00 
  57    4:20   0.00   43.4    82    5.1    81     8.6   1010.3    0.00 
  57    4:30   0.00   42.7    84    2.9    51     6.9   1010.4    0.00 
  57    4:40   0.01   41.6    87    2.6    18     4.2   1010.6    0.00 
  57    4:50   0.01   41.2    90    2.5    45     5.0   1010.7    0.00 
  57    5:00   0.01   41.2    90    3.2    62     4.6   1010.8    0.00 
  57    5:10   0.01   41.2    91    3.3    68     4.2   1010.8    0.00 
  57    5:20   0.01   41.4    91    3.1    61     4.0   1010.9    0.00 
  57    5:30   0.01   41.6    91    3.6    29     4.9   1010.9    0.00 
  57    5:40   0.01   41.4    92    4.0    30     5.1   1010.9    0.00 
  57    5:50   0.01   41.1    92    3.7    49     5.0   1011.1    0.00 
  57    6:00   0.01   41.0    92    2.5    51     4.5   1011.2    0.00 
  57    6:10   0.01   40.9    92    2.3    42     3.1   1011.4    0.00 
  57    6:20   0.01   41.2    92    2.4    45     3.9   1011.5    0.00 
  57    6:30   0.01   41.5    92    2.3    32     3.9   1011.6    0.00 

Return to Norris Rancho Marino Reserve graphs page.


Western Regional Climate Center,wrcc@dri.edu